Time;durP1;ratioP1;P1;durP2;ratioP2;P2;SDS_P1;SDS_P2;PMS_P1;PMS_P2;Temp;Humidity;BMP_temperature;BMP_pressure;BME280_temperature;BME280_humidity;BME280_pressure;Samples;Min_cycle;Max_cycle;Signal;HPM_P1;HPM_P2
2021/07/24 00:02:21;;;;;;;14.95;12.27;;;;;;;19.95;65.89;99928.16;4998752;28;20057;-81
2021/07/24 00:04:49;;;;;;;19.13;13.05;;;;;;;19.93;65.68;99923.94;4991579;28;20061;-81
2021/07/24 00:07:23;;;;;;;16.40;12.93;;;;;;;19.93;66.10;99930.16;4999360;28;20558;-81
2021/07/24 00:09:50;;;;;;;16.98;12.95;;;;;;;19.92;66.43;99915.00;4998539;28;20046;-80
2021/07/24 00:12:17;;;;;;;18.75;13.23;;;;;;;19.88;66.38;99913.59;4985512;28;20085;-81
2021/07/24 00:14:43;;;;;;;17.45;13.07;;;;;;;19.87;66.44;99914.59;4998261;28;20069;-80
2021/07/24 00:17:11;;;;;;;17.35;12.70;;;;;;;19.83;66.70;99910.47;4980859;28;20081;-80
2021/07/24 00:19:38;;;;;;;22.90;13.70;;;;;;;19.82;66.13;99913.34;5005257;28;20124;-80
2021/07/24 00:22:05;;;;;;;15.82;12.60;;;;;;;19.76;66.80;99909.38;4997006;28;20058;-80
2021/07/24 00:24:31;;;;;;;21.98;16.50;;;;;;;19.74;67.16;99903.28;4990580;28;20042;-80
2021/07/24 00:26:58;;;;;;;18.30;13.45;;;;;;;19.70;67.22;99907.25;5000904;28;20088;-80
2021/07/24 00:29:24;;;;;;;20.25;13.57;;;;;;;19.68;67.46;99901.16;4996562;28;20054;-81
2021/07/24 00:31:51;;;;;;;17.77;13.35;;;;;;;19.65;67.59;99895.25;4998005;28;20054;-81
2021/07/24 00:34:18;;;;;;;16.13;13.10;;;;;;;19.60;67.76;99892.97;4997692;28;20044;-81
2021/07/24 00:36:45;;;;;;;14.98;12.18;;;;;;;19.57;67.92;99896.78;4997020;28;20054;-80
2021/07/24 00:39:11;;;;;;;15.98;12.82;;;;;;;19.52;68.18;99882.06;4997814;28;20060;-80
2021/07/24 00:41:52;;;;;;;17.30;13.23;;;;;;;19.53;68.07;99895.38;4984347;28;20045;-80
2021/07/24 00:44:22;;;;;;;;;;;;;;;19.52;68.40;99882.06;4998454;28;20069;-80
2021/07/24 00:46:50;;;;;;;;;;;;;;;19.48;68.67;99880.66;4998897;28;19921;-80
2021/07/24 00:49:21;;;;;;;18.40;13.20;;;;;;;19.42;68.66;99881.22;5000174;28;19921;-80
2021/07/24 00:51:49;;;;;;;16.20;12.43;;;;;;;19.38;69.15;99879.78;5008688;28;20059;-79
2021/07/24 00:54:15;;;;;;;18.52;13.68;;;;;;;19.37;69.18;99881.63;5008182;28;20102;-80
2021/07/24 00:56:43;;;;;;;17.48;13.38;;;;;;;19.32;69.76;99872.31;5008489;28;20098;-80
2021/07/24 00:59:10;;;;;;;17.65;13.95;;;;;;;19.26;69.71;99871.88;5005146;28;20047;-80
2021/07/24 01:01:41;;;;;;;16.67;13.73;;;;;;;19.23;69.95;99869.47;5006383;28;20053;-81
2021/07/24 01:04:09;;;;;;;17.17;14.02;;;;;;;19.21;70.18;99874.13;5007181;28;20057;-79
2021/07/24 01:06:36;;;;;;;18.60;13.85;;;;;;;19.17;70.20;99872.72;5001841;28;20074;-80
2021/07/24 01:09:03;;;;;;;19.52;14.45;;;;;;;19.13;70.33;99876.66;5016038;28;20107;-80
2021/07/24 01:11:30;;;;;;;19.35;13.77;;;;;;;19.12;70.23;99872.28;5009306;28;20054;-80
2021/07/24 01:13:57;;;;;;;18.80;14.05;;;;;;;19.06;70.72;99875.50;5006217;28;20074;-80
2021/07/24 01:16:24;;;;;;;19.50;14.32;;;;;;;19.03;70.64;99869.59;5003992;28;20054;-80
2021/07/24 01:18:51;;;;;;;18.58;14.25;;;;;;;18.95;71.09;99864.91;5006734;28;20050;-80
2021/07/24 01:21:28;;;;;;;19.80;13.98;;;;;;;18.93;71.34;99865.03;5013107;28;20085;-79
2021/07/24 01:23:56;;;;;;;19.77;14.48;;;;;;;18.94;71.78;99865.88;5013461;28;20094;-79
2021/07/24 01:26:28;;;;;;;18.05;14.32;;;;;;;18.95;71.62;99872.09;5013464;28;20047;-79
2021/07/24 01:28:56;;;;;;;19.92;13.77;;;;;;;18.94;71.64;99871.25;4983277;28;20063;-79
2021/07/24 01:31:24;;;;;;;16.50;13.27;;;;;;;18.96;71.64;99873.81;5010001;28;20054;-79
2021/07/24 01:33:52;;;;;;;16.17;12.98;;;;;;;18.96;71.55;99876.47;4996117;28;20097;-80
2021/07/24 01:36:19;;;;;;;20.13;13.70;;;;;;;18.95;71.64;99867.59;4988247;28;20051;-80
2021/07/24 01:38:47;;;;;;;18.65;13.93;;;;;;;18.96;71.10;99877.34;4996267;28;20054;-80
2021/07/24 01:41:15;;;;;;;16.98;13.77;;;;;;;18.94;71.48;99873.94;4994092;28;20054;-80
2021/07/24 01:43:43;;;;;;;21.73;13.93;;;;;;;18.93;71.31;99870.41;4994795;28;20082;-80
2021/07/24 01:46:11;;;;;;;17.05;13.30;;;;;;;18.89;71.67;99862.75;4997438;28;20459;-80
2021/07/24 01:54:03;;;;;;;17.52;13.57;;;;;;;18.88;72.03;99866.47;4998946;28;20121;-81
2021/07/24 01:56:35;;;;;;;17.20;13.18;;;;;;;18.86;71.97;99871.09;5008695;28;20088;-80
2021/07/24 01:59:02;;;;;;;18.80;14.02;;;;;;;18.84;72.20;99854.31;5014779;28;20050;-81
2021/07/24 02:01:31;;;;;;;17.88;13.35;;;;;;;18.84;72.33;99854.31;5018753;28;20057;-80
2021/07/24 02:04:21;;;;;;;18.85;13.65;;;;;;;18.83;72.31;99857.97;5018207;28;20054;-80
2021/07/24 02:06:49;;;;;;;17.75;13.00;;;;;;;18.80;72.14;99847.50;5014290;28;20104;-80
2021/07/24 02:09:17;;;;;;;16.45;12.93;;;;;;;18.79;72.33;99859.22;5020094;28;20050;-81
2021/07/24 02:11:45;;;;;;;17.00;13.77;;;;;;;18.76;72.49;99862.16;5002168;28;20144;-80
2021/07/24 02:14:12;;;;;;;18.25;13.90;;;;;;;18.73;72.67;99868.66;4988664;28;20364;-80
2021/07/24 02:16:40;;;;;;;16.95;13.15;;;;;;;18.71;72.77;99859.91;4992418;28;20054;-80
2021/07/24 02:19:09;;;;;;;20.52;14.57;;;;;;;18.68;72.69;99854.81;5008584;28;20046;-79
2021/07/24 02:21:37;;;;;;;16.75;13.13;;;;;;;18.64;72.85;99852.53;4999601;28;20049;-80
2021/07/24 02:24:04;;;;;;;19.00;14.68;;;;;;;18.62;72.99;99849.16;4997481;28;20065;-79
2021/07/24 02:26:31;;;;;;;21.40;14.00;;;;;;;18.56;73.04;99840.66;4999535;28;20061;-79
2021/07/24 02:28:59;;;;;;;17.67;14.10;;;;;;;18.54;73.37;99836.41;4998323;28;20406;-79
2021/07/24 02:31:27;;;;;;;18.25;13.75;;;;;;;18.52;73.48;99839.22;5008133;28;20113;-80
2021/07/24 02:33:54;;;;;;;18.63;14.25;;;;;;;18.46;73.91;99842.44;4998608;28;20351;-80
2021/07/24 02:36:20;;;;;;;17.17;13.35;;;;;;;18.40;73.94;99848.34;4982846;28;20054;-81
2021/07/24 02:38:47;;;;;;;17.15;14.05;;;;;;;18.37;74.21;99851.28;4999580;28;20108;-81
2021/07/24 02:41:14;;;;;;;20.42;14.02;;;;;;;18.41;74.25;99846.53;4999495;28;20046;-80
2021/07/24 02:43:42;;;;;;;16.98;13.55;;;;;;;18.44;74.36;99840.84;5000651;28;20058;-81
2021/07/24 02:46:10;;;;;;;19.80;13.55;;;;;;;18.44;73.97;99820.25;4999573;28;20061;-81
2021/07/24 02:48:37;;;;;;;19.83;13.88;;;;;;;18.42;74.05;99821.38;4997994;28;20058;-81
2021/07/24 02:51:04;;;;;;;17.13;13.85;;;;;;;18.41;74.21;99830.44;5002246;28;20434;-81
2021/07/24 02:53:30;;;;;;;20.25;13.70;;;;;;;18.41;74.36;99833.97;4990222;28;20141;-81
2021/07/24 02:55:57;;;;;;;17.67;14.65;;;;;;;18.39;74.31;99830.56;4998437;28;20054;-81
2021/07/24 02:58:24;;;;;;;16.75;13.90;;;;;;;18.37;74.36;99829.84;4999216;28;20047;-81
2021/07/24 03:00:50;;;;;;;18.50;13.50;;;;;;;18.37;74.08;99829.00;4999398;28;20502;-81
2021/07/24 03:03:17;;;;;;;17.13;12.98;;;;;;;18.34;74.50;99826.59;5006192;28;20133;-79
2021/07/24 03:05:44;;;;;;;17.02;13.15;;;;;;;18.36;74.54;99819.25;5005235;28;20517;-79
2021/07/24 03:08:11;;;;;;;19.25;13.43;;;;;;;18.37;74.66;99827.16;4998364;28;20482;-80
2021/07/24 03:10:38;;;;;;;17.05;13.77;;;;;;;18.39;74.67;99829.72;4998808;28;20081;-81
2021/07/24 03:13:04;;;;;;;18.13;14.43;;;;;;;18.36;74.36;99813.91;5006244;28;20138;-80
2021/07/24 03:15:32;;;;;;;16.35;13.82;;;;;;;18.35;74.14;99815.72;4998572;28;20046;-80
2021/07/24 03:17:59;;;;;;;16.63;13.85;;;;;;;18.31;74.41;99808.94;4997273;28;20057;-80
2021/07/24 03:20:25;;;;;;;17.90;14.50;;;;;;;18.30;74.72;99812.59;4997512;28;20133;-80
2021/07/24 03:22:55;;;;;;;17.63;13.90;;;;;;;18.27;74.45;99803.97;4998155;28;20050;-80
2021/07/24 03:25:22;;;;;;;19.30;14.70;;;;;;;18.20;74.77;99799.16;4998570;28;20050;-80
2021/07/24 03:27:49;;;;;;;18.95;13.98;;;;;;;18.18;74.89;99800.28;4998581;28;20141;-80
2021/07/24 03:30:15;;;;;;;17.27;14.20;;;;;;;18.17;74.87;99803.94;4999545;28;20054;-80
2021/07/24 03:32:42;;;;;;;18.02;14.27;;;;;;;18.15;74.68;99801.41;4999022;28;20046;-81
2021/07/24 03:35:09;;;;;;;19.52;14.18;;;;;;;18.22;74.67;99809.75;4982587;28;20137;-81
2021/07/24 03:37:38;;;;;;;17.25;13.38;;;;;;;18.23;74.91;99809.63;4999406;28;20054;-81
2021/07/24 03:40:05;;;;;;;18.52;14.65;;;;;;;18.21;74.66;99808.91;4998947;28;20401;-80
2021/07/24 03:42:33;;;;;;;20.33;14.90;;;;;;;18.21;74.57;99808.91;5009376;28;20113;-81
2021/07/24 03:45:00;;;;;;;21.65;14.93;;;;;;;18.18;75.01;99811.84;5017043;28;20180;-81
2021/07/24 03:47:27;;;;;;;18.42;14.68;;;;;;;18.14;75.30;99817.59;5018504;28;20054;-81
2021/07/24 03:49:55;;;;;;;20.75;15.43;;;;;;;18.08;75.10;99819.00;5018210;28;20054;-81
2021/07/24 03:52:22;;;;;;;18.15;13.80;;;;;;;18.08;75.43;99823.50;5011685;28;20046;-80
2021/07/24 03:54:50;;;;;;;19.13;13.93;;;;;;;18.11;75.23;99828.59;5002708;28;20133;-81
2021/07/24 03:57:20;;;;;;;17.42;13.48;;;;;;;18.13;75.15;99831.97;5005955;28;20098;-79
2021/07/24 03:59:47;;;;;;;17.92;14.18;;;;;;;18.18;75.16;99835.97;5007575;28;20058;-81
2021/07/24 04:02:18;;;;;;;17.77;13.95;;;;;;;18.20;74.92;99838.50;5010858;28;20050;-78
2021/07/24 04:04:50;;;;;;;19.63;14.40;;;;;;;18.19;75.18;99845.72;5009762;28;20046;-79
2021/07/24 04:07:17;;;;;;;16.48;13.73;;;;;;;18.23;75.03;99849.81;5001854;28;20552;-78
2021/07/24 04:09:44;;;;;;;18.50;14.45;;;;;;;18.23;74.70;99839.09;4999184;28;20042;-78
2021/07/24 04:12:11;;;;;;;18.63;13.88;;;;;;;18.25;74.51;99848.84;5009043;28;20061;-79
2021/07/24 04:14:37;;;;;;;18.60;13.82;;;;;;;18.25;74.86;99844.34;5019573;28;20056;-78
2021/07/24 04:17:04;;;;;;;17.15;13.65;;;;;;;18.27;74.99;99845.03;5018272;28;20060;-79
2021/07/24 04:19:31;;;;;;;17.88;13.95;;;;;;;18.29;75.06;99843.06;5017875;28;20556;-79
2021/07/24 04:21:57;;;;;;;19.17;13.40;;;;;;;18.37;74.57;99850.44;5018979;28;20053;-78
2021/07/24 04:24:24;;;;;;;18.10;13.82;;;;;;;18.40;74.08;99853.72;5018506;28;20476;-78
2021/07/24 04:26:52;;;;;;;19.17;14.80;;;;;;;18.47;74.17;99862.88;5018338;28;20053;-78
2021/07/24 04:29:18;;;;;;;19.90;13.63;;;;;;;18.53;73.85;99866.88;5008606;28;20501;-78
2021/07/24 04:31:45;;;;;;;17.80;13.38;;;;;;;18.69;73.60;99875.28;4998861;28;20081;-78
2021/07/24 04:34:11;;;;;;;17.95;13.32;;;;;;;18.84;73.03;99889.16;5000464;28;20054;-78
2021/07/24 04:36:40;;;;;;;17.67;13.23;;;;;;;18.98;72.93;99893.31;4996862;28;20065;-78
2021/07/24 04:39:07;;;;;;;18.15;13.00;;;;;;;19.05;72.01;99889.06;4996831;28;20635;-79
2021/07/24 04:41:34;;;;;;;17.05;13.32;;;;;;;19.12;71.22;99887.53;5004305;28;20061;-79
2021/07/24 04:44:01;;;;;;;14.93;13.20;;;;;;;19.15;71.65;99901.53;5004813;28;20072;-79
2021/07/24 04:46:27;;;;;;;17.15;13.23;;;;;;;19.19;71.24;99886.84;4995374;28;20054;-79
2021/07/24 04:48:54;;;;;;;17.83;13.27;;;;;;;19.19;70.95;99884.16;5013950;28;20061;-79
2021/07/24 04:51:21;;;;;;;18.38;12.80;;;;;;;19.17;70.83;99877.25;5017566;28;20061;-79
2021/07/24 04:53:48;;;;;;;17.40;13.63;;;;;;;19.16;70.90;99867.50;5016822;28;20855;-79
2021/07/24 04:56:16;;;;;;;20.50;14.52;;;;;;;19.10;71.25;99849.25;5016640;28;20048;-79
2021/07/24 04:58:43;;;;;;;17.50;13.80;;;;;;;19.09;71.48;99844.88;5015325;28;20050;-79
2021/07/24 05:01:12;;;;;;;18.05;12.90;;;;;;;19.17;71.38;99845.88;5000039;28;20081;-79
2021/07/24 05:03:43;;;;;;;15.90;13.27;;;;;;;19.28;70.67;99852.94;4998797;28;20042;-79
2021/07/24 05:06:12;;;;;;;15.45;13.07;;;;;;;19.36;70.38;99839.66;5003948;28;20062;-79
2021/07/24 05:08:39;;;;;;;16.10;12.18;;;;;;;19.37;70.24;99845.88;5002882;28;20054;-79
2021/07/24 05:11:05;;;;;;;17.50;12.80;;;;;;;19.40;70.18;99841.06;4996331;28;20088;-79
2021/07/24 05:13:32;;;;;;;17.67;13.32;;;;;;;19.43;70.16;99835.41;5017852;28;20053;-80
2021/07/24 05:15:59;;;;;;;14.93;12.57;;;;;;;19.49;69.71;99818.78;5020453;28;20545;-79
2021/07/24 05:18:26;;;;;;;17.85;12.35;;;;;;;19.56;69.61;99813.66;5023431;28;20058;-79
2021/07/24 05:20:52;;;;;;;15.73;13.38;;;;;;;19.55;69.24;99806.59;5012729;28;20074;-80
2021/07/24 05:23:19;;;;;;;16.90;12.82;;;;;;;19.53;69.27;99800.53;5010251;28;20454;-79
2021/07/24 05:25:46;;;;;;;18.70;13.13;;;;;;;19.53;68.92;99795.16;5003356;28;20054;-80
2021/07/24 05:28:12;;;;;;;15.43;12.73;;;;;;;19.47;69.03;99793.88;4998127;28;20754;-80
2021/07/24 05:30:39;;;;;;;16.95;13.15;;;;;;;19.48;68.37;99805.47;4997709;28;20058;-80
2021/07/24 05:33:06;;;;;;;18.10;13.00;;;;;;;19.49;68.78;99786.56;5002007;28;20054;-79
2021/07/24 05:35:32;;;;;;;15.88;12.63;;;;;;;19.52;68.54;99780.88;5001249;28;20057;-80
2021/07/24 05:37:59;;;;;;;19.45;12.70;;;;;;;19.56;68.34;99779.59;5001077;28;20157;-80
2021/07/24 05:40:26;;;;;;;18.45;12.90;;;;;;;19.54;68.53;99764.63;5004758;28;20050;-80
2021/07/24 05:42:58;;;;;;;18.83;13.57;;;;;;;19.54;68.60;99768.16;5014420;28;20061;-80
2021/07/24 05:45:25;;;;;;;17.30;12.55;;;;;;;19.49;69.02;99770.44;5023796;28;20050;-80
2021/07/24 05:47:52;;;;;;;18.38;13.27;;;;;;;19.47;68.66;99783.13;5022887;28;20057;-80
2021/07/24 05:50:19;;;;;;;18.30;12.52;;;;;;;19.48;68.96;99784.84;5023954;28;20105;-79
2021/07/24 05:52:46;;;;;;;19.33;12.95;;;;;;;19.54;68.88;99789.63;5019156;28;20050;-79
2021/07/24 05:55:12;;;;;;;15.90;12.70;;;;;;;19.59;69.27;99800.81;5022255;28;20579;-80
2021/07/24 05:57:39;;;;;;;16.65;12.90;;;;;;;19.68;68.77;99799.09;5022646;28;20109;-80
2021/07/24 06:00:08;;;;;;;20.70;13.30;;;;;;;19.72;68.65;99802.34;5003158;28;20058;-80
2021/07/24 06:02:34;;;;;;;16.27;12.10;;;;;;;19.80;68.54;99810.53;5015600;28;20106;-79
2021/07/24 06:05:01;;;;;;;19.05;12.40;;;;;;;19.89;68.04;99815.03;5019350;28;20089;-79
2021/07/24 06:07:30;;;;;;;18.15;13.18;;;;;;;20.01;67.97;99821.91;5012356;28;20073;-80
2021/07/24 06:09:57;;;;;;;17.83;12.85;;;;;;;20.15;67.82;99829.50;5011006;28;20097;-80
2021/07/24 06:12:24;;;;;;;16.35;12.48;;;;;;;20.31;67.46;99829.72;5024163;28;20057;-80
2021/07/24 06:14:51;;;;;;;16.77;12.45;;;;;;;20.47;66.49;99825.59;5022435;28;20050;-80
2021/07/24 06:17:17;;;;;;;18.75;12.70;;;;;;;20.56;66.00;99813.94;5022176;28;20108;-81
2021/07/24 06:19:44;;;;;;;15.82;12.65;;;;;;;20.69;64.91;99816.28;5002447;28;20061;-80
2021/07/24 06:22:11;;;;;;;15.95;13.20;;;;;;;20.76;64.84;99829.00;5000850;28;20151;-80
2021/07/24 06:24:38;;;;;;;18.42;13.68;;;;;;;20.76;64.61;99815.53;5001646;28;20054;-80
2021/07/24 06:27:04;;;;;;;18.45;12.00;;;;;;;20.68;64.80;99815.44;5000648;28;20141;-80
2021/07/24 06:29:31;;;;;;;18.20;12.75;;;;;;;20.62;65.44;99808.81;4990415;28;20114;-80
2021/07/24 06:32:01;;;;;;;;;;;;;;;20.61;65.46;99800.91;4987577;28;20051;-81
2021/07/24 06:34:28;;;;;;;17.95;12.82;;;;;;;20.53;66.56;99801.66;4993797;28;19932;-80
2021/07/24 06:36:54;;;;;;;16.48;12.48;;;;;;;20.59;66.14;99798.38;5014595;28;20064;-81
2021/07/24 06:39:21;;;;;;;16.98;12.55;;;;;;;20.69;66.23;99802.81;5014195;28;20057;-81
2021/07/24 06:41:51;;;;;;;17.83;12.23;;;;;;;20.71;66.00;99804.38;4987219;28;20498;-81
2021/07/24 06:44:23;;;;;;;19.17;13.35;;;;;;;20.76;65.72;99812.84;5008664;28;20061;-81
2021/07/24 06:46:57;;;;;;;15.23;12.20;;;;;;;20.81;66.02;99821.28;4976973;28;20058;-81
2021/07/24 06:49:24;;;;;;;15.00;12.18;;;;;;;20.87;65.59;99804.56;5006780;28;20137;-81
2021/07/24 06:51:50;;;;;;;15.38;12.73;;;;;;;21.02;66.22;99810.25;4985058;28;20072;-81
2021/07/24 06:54:17;;;;;;;17.42;12.85;;;;;;;21.12;66.15;99799.41;5001465;28;20097;-81
2021/07/24 06:56:43;;;;;;;14.68;12.05;;;;;;;21.20;66.00;99791.44;5003241;28;20142;-80
2021/07/24 06:59:10;;;;;;;14.73;12.30;;;;;;;21.23;66.30;99781.22;5007663;28;20050;-80
2021/07/24 07:01:37;;;;;;;15.43;12.88;;;;;;;21.20;65.51;99776.16;5010544;28;20134;-81
2021/07/24 07:04:06;;;;;;;18.52;13.10;;;;;;;21.12;66.05;99786.78;5007436;28;20054;-80
2021/07/24 07:06:34;;;;;;;16.35;12.70;;;;;;;21.20;65.81;99795.00;5002741;28;20103;-80
2021/07/24 07:09:00;;;;;;;19.17;12.85;;;;;;;21.30;65.64;99803.81;5004513;28;20136;-80
2021/07/24 07:11:27;;;;;;;15.07;12.38;;;;;;;21.33;65.37;99800.81;5015335;28;20121;-81
2021/07/24 07:13:54;;;;;;;17.75;13.27;;;;;;;21.34;65.21;99804.38;4995594;28;20050;-80
2021/07/24 07:16:21;;;;;;;15.70;13.05;;;;;;;21.32;65.45;99798.28;5011320;28;20105;-80
2021/07/24 07:18:48;;;;;;;17.70;12.43;;;;;;;21.46;65.56;99805.81;5011541;28;20061;-80
2021/07/24 07:21:15;;;;;;;17.58;13.23;;;;;;;21.65;65.40;99811.03;5011989;28;20118;-80
2021/07/24 07:23:42;;;;;;;16.30;12.23;;;;;;;21.73;64.61;99815.59;5006096;28;20065;-81
2021/07/24 07:26:08;;;;;;;17.27;12.80;;;;;;;21.82;63.80;99800.34;5000744;28;20054;-80
2021/07/24 07:28:35;;;;;;;16.38;11.98;;;;;;;22.02;63.67;99818.06;4995389;28;20509;-81
2021/07/24 07:31:01;;;;;;;17.13;13.07;;;;;;;22.26;62.69;99823.56;4999159;28;20054;-80
2021/07/24 07:33:28;;;;;;;14.40;12.10;;;;;;;22.45;62.13;99827.88;4999330;28;20061;-81
2021/07/24 07:35:55;;;;;;;15.55;13.20;;;;;;;22.71;60.95;99825.09;4999609;28;20050;-81
2021/07/24 07:38:22;;;;;;;19.38;13.13;;;;;;;22.90;59.21;99821.31;4999271;28;20059;-80
2021/07/24 07:40:48;;;;;;;18.15;13.25;;;;;;;23.04;58.72;99829.63;4998211;28;20051;-81
2021/07/24 07:43:16;;;;;;;19.45;13.57;;;;;;;23.09;58.07;99826.44;5002175;28;20107;-81
2021/07/24 07:45:42;;;;;;;18.10;13.40;;;;;;;23.14;58.06;99829.47;4993888;28;20142;-81
2021/07/24 07:48:09;;;;;;;19.48;14.38;;;;;;;23.17;57.05;99823.72;4993675;28;20042;-81
2021/07/24 07:50:36;;;;;;;18.90;13.63;;;;;;;23.09;57.59;99816.47;4994444;28;20090;-81
2021/07/24 07:53:03;;;;;;;18.98;13.80;;;;;;;23.21;58.24;99830.50;4996846;28;20149;-81
2021/07/24 07:55:30;;;;;;;17.90;12.57;;;;;;;23.33;58.05;99826.47;4998868;28;20054;-81
2021/07/24 07:57:57;;;;;;;17.58;13.63;;;;;;;23.41;56.74;99821.06;4999033;28;20542;-81
2021/07/24 08:00:23;;;;;;;21.45;14.02;;;;;;;23.46;56.82;99823.25;4999030;28;20050;-80
2021/07/24 08:02:55;;;;;;;20.77;12.90;;;;;;;23.74;56.30;99807.59;5005739;28;20042;-80
2021/07/24 08:05:22;;;;;;;21.50;14.25;;;;;;;24.17;55.86;99805.47;5003352;28;20705;-79
2021/07/24 08:07:49;;;;;;;21.20;14.35;;;;;;;24.48;53.91;99795.56;4993537;28;20054;-80
2021/07/24 08:10:16;;;;;;;20.25;13.55;;;;;;;24.76;52.99;99785.13;4999240;28;20567;-80
2021/07/24 08:12:43;;;;;;;18.90;13.77;;;;;;;24.90;52.37;99786.22;5013412;28;20050;-80
2021/07/24 08:15:09;;;;;;;21.88;13.70;;;;;;;24.99;51.91;99783.31;5015253;28;20130;-79
2021/07/24 08:17:36;;;;;;;16.70;13.07;;;;;;;25.07;51.78;99779.69;5000307;28;22099;-80
2021/07/24 08:20:07;;;;;;;18.63;13.68;;;;;;;25.26;52.26;99771.09;4992600;28;20050;-80
2021/07/24 08:22:36;;;;;;;14.60;12.07;;;;;;;25.42;52.62;99773.69;4993168;28;20109;-79
2021/07/24 08:25:05;;;;;;;18.33;13.63;;;;;;;25.53;51.04;99772.38;4997666;28;20058;-80
2021/07/24 08:27:40;;;;;;;19.30;13.07;;;;;;;25.48;51.03;99759.41;4998938;28;20042;-81
2021/07/24 08:30:07;;;;;;;17.30;13.57;;;;;;;25.39;51.04;99757.78;4998223;28;20129;-79
2021/07/24 08:32:34;;;;;;;20.35;14.52;;;;;;;25.20;51.90;99757.41;4991810;28;20125;-80
2021/07/24 08:35:01;;;;;;;17.63;13.77;;;;;;;25.16;52.72;99767.81;4996273;28;20057;-80
2021/07/24 08:37:27;;;;;;;18.73;14.10;;;;;;;25.32;51.85;99773.09;4997180;28;20056;-80
2021/07/24 08:39:56;;;;;;;15.63;12.70;;;;;;;25.42;51.79;99773.69;4981244;28;20146;-80
2021/07/24 08:42:39;;;;;;;18.33;13.30;;;;;;;25.30;51.47;99785.97;4996675;28;20104;-80
2021/07/24 08:45:10;;;;;;;20.58;13.82;;;;;;;25.33;51.75;99785.63;4997508;28;20057;-80
2021/07/24 08:47:37;;;;;;;17.60;13.68;;;;;;;25.16;52.40;99786.75;4994614;28;20050;-79
2021/07/24 08:50:08;;;;;;;18.70;13.50;;;;;;;24.97;52.78;99793.50;4986067;28;20057;-79
2021/07/24 08:52:36;;;;;;;17.88;14.23;;;;;;;24.88;53.44;99793.66;5001432;28;20048;-79
2021/07/24 08:55:05;;;;;;;18.05;13.43;;;;;;;24.68;53.83;99780.59;4999465;28;20054;-79
2021/07/24 08:57:39;;;;;;;16.17;12.88;;;;;;;24.59;54.60;99773.53;4996833;28;20097;-80
2021/07/24 09:00:15;;;;;;;17.05;12.73;;;;;;;24.61;54.93;99776.91;5002433;28;20402;-81
2021/07/24 09:02:44;;;;;;;18.00;13.68;;;;;;;24.50;55.16;99776.47;5001448;28;20050;-81
2021/07/24 09:05:13;;;;;;;18.20;12.85;;;;;;;24.42;55.41;99767.34;5008756;28;20045;-81
2021/07/24 09:07:43;;;;;;;18.33;13.53;;;;;;;24.36;55.51;99773.47;4996438;28;20056;-81
2021/07/24 09:10:11;;;;;;;18.77;13.23;;;;;;;24.29;55.85;99768.94;5012858;28;20054;-80
2021/07/24 09:12:44;;;;;;;23.63;14.35;;;;;;;24.29;56.00;99756.25;4996166;28;20061;-80
2021/07/24 09:15:14;;;;;;;19.17;13.55;;;;;;;24.35;56.36;99758.25;4993353;28;20141;-79
2021/07/24 09:17:41;;;;;;;17.55;12.20;;;;;;;24.46;56.38;99757.00;5002161;28;20054;-81
2021/07/24 09:20:09;;;;;;;16.17;12.88;;;;;;;24.65;55.97;99769.28;5015454;28;20073;-80
2021/07/24 09:22:42;;;;;;;19.23;13.18;;;;;;;24.73;54.79;99758.38;5009269;28;20073;-81
2021/07/24 09:25:20;;;;;;;19.00;12.63;;;;;;;24.94;55.25;99749.66;5011419;28;20517;-81
2021/07/24 09:27:49;;;;;;;18.27;13.43;;;;;;;25.13;53.71;99744.63;5001073;28;20061;-81
2021/07/24 09:30:31;;;;;;;15.70;12.68;;;;;;;25.26;53.92;99746.72;5005623;28;20054;-80
2021/07/24 09:33:10;;;;;;;20.27;13.75;;;;;;;25.12;53.58;99740.22;4999224;28;20074;-80
2021/07/24 09:35:45;;;;;;;16.60;13.00;;;;;;;24.93;54.21;99743.38;4978960;28;20046;-80
2021/07/24 09:38:11;;;;;;;17.02;12.93;;;;;;;24.83;54.77;99749.03;4998065;28;20545;-79
2021/07/24 09:40:40;;;;;;;20.25;13.27;;;;;;;24.74;55.11;99750.09;4992418;28;20050;-81
2021/07/24 09:43:30;;;;;;;18.77;13.93;;;;;;;24.65;54.94;99740.34;5000735;28;20085;-79
2021/07/24 09:46:16;;;;;;;18.05;13.93;;;;;;;24.56;55.04;99741.38;4998338;28;20054;-81
2021/07/24 09:48:51;;;;;;;20.85;13.65;;;;;;;24.50;55.46;99758.34;4989174;28;20050;-81
2021/07/24 09:51:34;;;;;;;19.92;13.05;;;;;;;24.40;56.19;99752.28;5012793;28;20105;-81
2021/07/24 09:54:05;;;;;;;18.65;13.27;;;;;;;24.33;56.29;99759.44;5013420;28;20114;-82
2021/07/24 09:56:40;;;;;;;21.02;13.43;;;;;;;24.40;57.21;99763.13;4993608;28;20133;-81
2021/07/24 09:59:28;;;;;;;17.58;13.80;;;;;;;24.57;56.43;99764.72;5002433;28;20050;-81
2021/07/24 10:01:57;;;;;;;16.35;12.40;;;;;;;24.65;55.41;99783.66;5001181;28;20056;-81
2021/07/24 10:04:34;;;;;;;18.10;14.05;;;;;;;24.53;56.00;99787.78;4995184;28;20525;-80
2021/07/24 10:07:24;;;;;;;20.92;14.18;;;;;;;24.43;56.64;99793.38;4992584;28;20038;-81
2021/07/24 10:09:51;;;;;;;18.23;13.15;;;;;;;24.33;57.17;99794.63;5000858;28;20070;-81
2021/07/24 10:12:19;;;;;;;20.05;14.07;;;;;;;24.30;56.89;99798.53;4984068;28;20386;-81
2021/07/24 10:14:46;;;;;;;18.92;14.13;;;;;;;24.28;57.21;99803.25;5004337;28;20053;-79
2021/07/24 10:17:15;;;;;;;15.82;13.32;;;;;;;24.24;57.17;99804.63;4997276;28;20138;-80
2021/07/24 10:19:45;;;;;;;26.20;13.90;;;;;;;24.26;57.55;99799.03;5003505;28;20105;-82
2021/07/24 10:22:11;;;;;;;19.92;13.68;;;;;;;24.34;57.16;99802.56;5004148;28;20066;-80
2021/07/24 10:24:38;;;;;;;15.73;12.55;;;;;;;24.49;56.96;99799.97;5003485;28;20054;-81
2021/07/24 10:27:28;;;;;;;16.55;12.57;;;;;;;24.73;56.35;99789.00;5003336;28;20050;-81
2021/07/24 10:30:04;;;;;;;17.13;13.25;;;;;;;25.12;55.20;99791.69;5017284;28;20103;-80
2021/07/24 10:32:37;;;;;;;18.33;12.75;;;;;;;25.56;53.42;99785.59;5003561;28;20064;-79
2021/07/24 10:35:06;;;;;;;15.82;12.07;;;;;;;25.92;53.18;99788.50;5009799;28;20046;-79
2021/07/24 10:37:39;;;;;;;17.55;12.35;;;;;;;26.27;51.86;99786.09;5010289;28;20054;-79
2021/07/24 10:40:23;;;;;;;16.65;12.77;;;;;;;26.47;51.41;99779.91;5011216;28;20050;-80
2021/07/24 10:42:52;;;;;;;14.63;11.95;;;;;;;26.74;49.90;99762.06;5013941;28;20061;-79
2021/07/24 10:45:45;;;;;;;15.88;13.02;;;;;;;27.01;50.54;99763.22;5011924;28;20069;-79
2021/07/24 10:48:21;;;;;;;15.27;12.32;;;;;;;27.00;49.57;99760.69;4994787;28;20627;-81
2021/07/24 10:50:53;;;;;;;16.40;12.00;;;;;;;27.02;49.76;99764.06;5004066;28;20062;-81
2021/07/24 10:53:34;;;;;;;15.40;11.77;;;;;;;27.07;49.95;99764.34;4994082;28;20090;-83
2021/07/24 10:56:03;;;;;;;15.82;11.95;;;;;;;27.05;49.32;99753.66;5003327;28;20054;-81
2021/07/24 10:58:57;;;;;;;15.55;11.85;;;;;;;27.01;50.39;99746.09;4994043;28;20204;-82
2021/07/24 11:01:50;;;;;;;16.95;11.80;;;;;;;27.05;50.93;99744.66;5000668;28;20114;-81
2021/07/24 11:04:40;;;;;;;16.02;12.57;;;;;;;27.07;50.28;99745.31;4987100;28;20576;-81
2021/07/24 11:07:12;;;;;;;16.35;11.68;;;;;;;27.03;50.21;99744.03;5007272;28;20061;-81
2021/07/24 11:09:43;;;;;;;15.15;12.75;;;;;;;27.04;49.82;99737.56;5013318;28;20046;-80
2021/07/24 11:12:16;;;;;;;17.33;12.13;;;;;;;27.08;50.20;99727.94;5003962;28;20070;-82
2021/07/24 11:14:51;;;;;;;16.08;12.10;;;;;;;27.10;49.67;99715.00;5004354;28;20058;-80
2021/07/24 11:17:18;;;;;;;16.85;11.38;;;;;;;27.14;50.47;99705.44;4985939;28;20097;-81
2021/07/24 11:19:59;;;;;;;14.20;12.45;;;;;;;27.04;50.29;99702.22;5006003;28;20091;-80
2021/07/24 11:22:36;;;;;;;15.70;11.45;;;;;;;26.96;51.42;99695.03;5004026;28;20069;-80
2021/07/24 11:25:05;;;;;;;13.65;12.07;;;;;;;27.03;50.04;99697.81;4994062;28;20066;-81
2021/07/24 11:27:33;;;;;;;19.30;13.03;;;;;;;27.16;49.30;99701.50;4981401;28;20052;-80
2021/07/24 11:30:06;;;;;;;15.38;11.70;;;;;;;27.07;50.66;99710.84;5003321;28;20089;-80
2021/07/24 11:32:35;;;;;;;15.35;11.90;;;;;;;26.98;50.69;99703.84;4989235;28;20050;-80